Stockport, Ohio
Current Conditions -  °F | °C
As of 1:14 AM on Thursday 27 Nov 2014 (Local Time) from KPKB Reporting Station
Moderate Fog Moderate Fog  
Wind Chill: 33°   Ceiling: 200
Heat Index: 33°   Visibility: 0.5mi
Dew Point: 32°   Wind: 3mph
Humidity: 96%   Direction: 200°SSW
Pressure: 30.04"   Gusts: NA
Location:  39.55°N, 81.79°W
Report Text: KPKB 270614Z AUTO 20003KT 1/2SM FG VV002 01/00 A3004 RMK AO2 T00060000 RVRNO
Loading
Personal Weather Stations






























Interactive Weather Map New forecast layout! Learn more

10-Day Weather Forecast

Advertisements
Track Severe Weather on mobile